sensor_id;sensor_type;location;lat;lon;timestamp;P1;durP1;ratioP1;P2;durP2;ratioP2
37237;SDS011;23129;49.662;8.448;2024-01-30T00:00:25;15.40;;;9.48;;
37237;SDS011;23129;49.662;8.448;2024-01-30T00:02:54;16.88;;;9.45;;
37237;SDS011;23129;49.662;8.448;2024-01-30T00:05:23;22.10;;;8.75;;
37237;SDS011;23129;49.662;8.448;2024-01-30T00:07:51;20.10;;;9.88;;
37237;SDS011;23129;49.662;8.448;2024-01-30T00:10:20;20.75;;;9.38;;
37237;SDS011;23129;49.662;8.448;2024-01-30T00:12:50;25.27;;;9.82;;
37237;SDS011;23129;49.662;8.448;2024-01-30T00:15:19;12.73;;;8.13;;
37237;SDS011;23129;49.662;8.448;2024-01-30T00:17:47;13.95;;;8.68;;
37237;SDS011;23129;49.662;8.448;2024-01-30T00:20:18;19.50;;;9.90;;
37237;SDS011;23129;49.662;8.448;2024-01-30T00:22:48;18.08;;;9.18;;
37237;SDS011;23129;49.662;8.448;2024-01-30T00:25:17;15.02;;;8.48;;
37237;SDS011;23129;49.662;8.448;2024-01-30T00:27:46;22.98;;;9.10;;
37237;SDS011;23129;49.662;8.448;2024-01-30T00:30:19;15.63;;;10.02;;
37237;SDS011;23129;49.662;8.448;2024-01-30T00:32:48;16.17;;;8.50;;
37237;SDS011;23129;49.662;8.448;2024-01-30T00:35:17;20.45;;;10.15;;
37237;SDS011;23129;49.662;8.448;2024-01-30T00:37:46;22.10;;;9.63;;
37237;SDS011;23129;49.662;8.448;2024-01-30T00:40:15;21.48;;;9.35;;
37237;SDS011;23129;49.662;8.448;2024-01-30T00:42:44;17.63;;;8.13;;
37237;SDS011;23129;49.662;8.448;2024-01-30T00:45:13;15.77;;;9.15;;
37237;SDS011;23129;49.662;8.448;2024-01-30T00:47:44;18.20;;;8.75;;
37237;SDS011;23129;49.662;8.448;2024-01-30T00:50:12;15.63;;;9.52;;
37237;SDS011;23129;49.662;8.448;2024-01-30T00:52:41;20.00;;;9.15;;
37237;SDS011;23129;49.662;8.448;2024-01-30T00:55:11;18.05;;;9.75;;
37237;SDS011;23129;49.662;8.448;2024-01-30T00:57:40;17.83;;;8.13;;
37237;SDS011;23129;49.662;8.448;2024-01-30T01:00:12;15.73;;;8.55;;
37237;SDS011;23129;49.662;8.448;2024-01-30T01:02:44;22.63;;;10.23;;
37237;SDS011;23129;49.662;8.448;2024-01-30T01:05:13;17.45;;;9.68;;
37237;SDS011;23129;49.662;8.448;2024-01-30T01:07:42;15.10;;;9.75;;
37237;SDS011;23129;49.662;8.448;2024-01-30T01:10:13;22.95;;;9.43;;
37237;SDS011;23129;49.662;8.448;2024-01-30T01:13:19;15.30;;;8.80;;
37237;SDS011;23129;49.662;8.448;2024-01-30T01:16:49;16.08;;;8.10;;
37237;SDS011;23129;49.662;8.448;2024-01-30T01:19:27;17.20;;;8.40;;
37237;SDS011;23129;49.662;8.448;2024-01-30T01:21:56;19.83;;;9.85;;
37237;SDS011;23129;49.662;8.448;2024-01-30T01:24:25;27.70;;;10.43;;
37237;SDS011;23129;49.662;8.448;2024-01-30T01:26:53;17.30;;;8.90;;
37237;SDS011;23129;49.662;8.448;2024-01-30T01:29:23;16.98;;;8.90;;
37237;SDS011;23129;49.662;8.448;2024-01-30T01:31:55;18.20;;;9.25;;
37237;SDS011;23129;49.662;8.448;2024-01-30T01:34:23;20.80;;;9.75;;
37237;SDS011;23129;49.662;8.448;2024-01-30T01:36:57;17.15;;;8.80;;
37237;SDS011;23129;49.662;8.448;2024-01-30T01:39:26;13.52;;;8.85;;
37237;SDS011;23129;49.662;8.448;2024-01-30T01:41:55;14.55;;;8.23;;
37237;SDS011;23129;49.662;8.448;2024-01-30T01:44:23;17.42;;;8.98;;
37237;SDS011;23129;49.662;8.448;2024-01-30T01:46:52;21.73;;;11.13;;
37237;SDS011;23129;49.662;8.448;2024-01-30T01:49:22;21.90;;;8.40;;
37237;SDS011;23129;49.662;8.448;2024-01-30T01:51:52;17.40;;;8.70;;
37237;SDS011;23129;49.662;8.448;2024-01-30T01:54:24;14.77;;;9.00;;
37237;SDS011;23129;49.662;8.448;2024-01-30T01:56:55;20.67;;;9.52;;
37237;SDS011;23129;49.662;8.448;2024-01-30T01:59:24;21.00;;;10.50;;
37237;SDS011;23129;49.662;8.448;2024-01-30T02:01:54;16.23;;;9.98;;
37237;SDS011;23129;49.662;8.448;2024-01-30T02:04:24;19.75;;;10.65;;
37237;SDS011;23129;49.662;8.448;2024-01-30T02:06:53;19.40;;;8.27;;
37237;SDS011;23129;49.662;8.448;2024-01-30T02:09:21;16.40;;;8.77;;
37237;SDS011;23129;49.662;8.448;2024-01-30T02:11:51;19.30;;;8.35;;
37237;SDS011;23129;49.662;8.448;2024-01-30T02:14:21;15.43;;;7.93;;
37237;SDS011;23129;49.662;8.448;2024-01-30T02:16:50;13.00;;;8.45;;
37237;SDS011;23129;49.662;8.448;2024-01-30T02:19:19;18.35;;;9.32;;
37237;SDS011;23129;49.662;8.448;2024-01-30T02:21:49;14.93;;;7.30;;
37237;SDS011;23129;49.662;8.448;2024-01-30T02:24:18;19.92;;;7.70;;
37237;SDS011;23129;49.662;8.448;2024-01-30T02:26:47;15.00;;;9.02;;
37237;SDS011;23129;49.662;8.448;2024-01-30T02:29:16;11.55;;;7.53;;
37237;SDS011;23129;49.662;8.448;2024-01-30T02:31:44;13.15;;;7.15;;
37237;SDS011;23129;49.662;8.448;2024-01-30T02:34:13;14.23;;;7.45;;
37237;SDS011;23129;49.662;8.448;2024-01-30T02:36:42;10.25;;;7.40;;
37237;SDS011;23129;49.662;8.448;2024-01-30T02:39:12;15.38;;;6.70;;
37237;SDS011;23129;49.662;8.448;2024-01-30T02:41:41;8.13;;;5.78;;
37237;SDS011;23129;49.662;8.448;2024-01-30T02:44:09;11.48;;;6.60;;
37237;SDS011;23129;49.662;8.448;2024-01-30T02:46:38;16.38;;;7.22;;
37237;SDS011;23129;49.662;8.448;2024-01-30T02:49:06;11.32;;;7.40;;
37237;SDS011;23129;49.662;8.448;2024-01-30T02:51:35;10.38;;;5.90;;
37237;SDS011;23129;49.662;8.448;2024-01-30T02:54:05;14.73;;;6.10;;
37237;SDS011;23129;49.662;8.448;2024-01-30T02:56:35;10.20;;;5.82;;
37237;SDS011;23129;49.662;8.448;2024-01-30T02:59:03;13.50;;;6.00;;
37237;SDS011;23129;49.662;8.448;2024-01-30T03:01:32;10.15;;;6.47;;
37237;SDS011;23129;49.662;8.448;2024-01-30T03:04:09;10.00;;;5.35;;
37237;SDS011;23129;49.662;8.448;2024-01-30T03:06:38;8.95;;;5.20;;
37237;SDS011;23129;49.662;8.448;2024-01-30T03:09:12;7.45;;;5.03;;
37237;SDS011;23129;49.662;8.448;2024-01-30T03:11:42;15.27;;;5.38;;
37237;SDS011;23129;49.662;8.448;2024-01-30T03:14:10;10.05;;;5.85;;
37237;SDS011;23129;49.662;8.448;2024-01-30T03:16:39;9.48;;;5.50;;
37237;SDS011;23129;49.662;8.448;2024-01-30T03:19:08;8.35;;;5.47;;
37237;SDS011;23129;49.662;8.448;2024-01-30T03:21:37;12.30;;;6.10;;
37237;SDS011;23129;49.662;8.448;2024-01-30T03:24:06;10.07;;;6.32;;
37237;SDS011;23129;49.662;8.448;2024-01-30T03:26:37;8.50;;;5.22;;
37237;SDS011;23129;49.662;8.448;2024-01-30T03:29:07;8.82;;;5.50;;
37237;SDS011;23129;49.662;8.448;2024-01-30T03:31:35;11.50;;;5.13;;
37237;SDS011;23129;49.662;8.448;2024-01-30T03:34:04;8.10;;;5.65;;
37237;SDS011;23129;49.662;8.448;2024-01-30T03:36:33;9.68;;;6.57;;
37237;SDS011;23129;49.662;8.448;2024-01-30T03:39:01;7.85;;;4.97;;
37237;SDS011;23129;49.662;8.448;2024-01-30T03:41:30;6.57;;;4.47;;
37237;SDS011;23129;49.662;8.448;2024-01-30T03:44:00;12.35;;;5.18;;
37237;SDS011;23129;49.662;8.448;2024-01-30T03:46:30;8.95;;;4.90;;
37237;SDS011;23129;49.662;8.448;2024-01-30T03:48:59;19.45;;;5.55;;
37237;SDS011;23129;49.662;8.448;2024-01-30T03:51:28;9.77;;;6.13;;
37237;SDS011;23129;49.662;8.448;2024-01-30T03:53:57;11.32;;;5.30;;
37237;SDS011;23129;49.662;8.448;2024-01-30T03:56:26;9.25;;;5.80;;
37237;SDS011;23129;49.662;8.448;2024-01-30T03:58:54;8.13;;;5.57;;
37237;SDS011;23129;49.662;8.448;2024-01-30T04:01:25;8.52;;;4.70;;
37237;SDS011;23129;49.662;8.448;2024-01-30T04:03:55;7.60;;;5.40;;
37237;SDS011;23129;49.662;8.448;2024-01-30T04:06:24;7.53;;;5.45;;
37237;SDS011;23129;49.662;8.448;2024-01-30T04:08:53;11.55;;;6.13;;
37237;SDS011;23129;49.662;8.448;2024-01-30T04:11:22;10.50;;;6.03;;
37237;SDS011;23129;49.662;8.448;2024-01-30T04:13:50;8.13;;;4.78;;
37237;SDS011;23129;49.662;8.448;2024-01-30T04:16:19;10.07;;;6.38;;
37237;SDS011;23129;49.662;8.448;2024-01-30T04:18:49;8.82;;;5.95;;
37237;SDS011;23129;49.662;8.448;2024-01-30T04:21:21;10.55;;;5.35;;
37237;SDS011;23129;49.662;8.448;2024-01-30T04:23:50;10.80;;;5.90;;
37237;SDS011;23129;49.662;8.448;2024-01-30T04:26:19;10.07;;;6.22;;
37237;SDS011;23129;49.662;8.448;2024-01-30T04:28:47;8.90;;;5.72;;
37237;SDS011;23129;49.662;8.448;2024-01-30T04:31:16;10.57;;;6.30;;
37237;SDS011;23129;49.662;8.448;2024-01-30T04:33:45;8.57;;;5.63;;
37237;SDS011;23129;49.662;8.448;2024-01-30T04:36:13;10.15;;;5.60;;
37237;SDS011;23129;49.662;8.448;2024-01-30T04:38:43;9.95;;;6.45;;
37237;SDS011;23129;49.662;8.448;2024-01-30T04:41:12;7.38;;;5.93;;
37237;SDS011;23129;49.662;8.448;2024-01-30T04:43:41;15.43;;;6.45;;
37237;SDS011;23129;49.662;8.448;2024-01-30T04:46:09;11.15;;;6.35;;
37237;SDS011;23129;49.662;8.448;2024-01-30T04:48:38;11.38;;;6.95;;
37237;SDS011;23129;49.662;8.448;2024-01-30T04:51:07;10.00;;;7.22;;
37237;SDS011;23129;49.662;8.448;2024-01-30T04:53:36;11.35;;;6.28;;
37237;SDS011;23129;49.662;8.448;2024-01-30T04:56:07;24.80;;;6.82;;
37237;SDS011;23129;49.662;8.448;2024-01-30T04:58:36;7.18;;;5.38;;
37237;SDS011;23129;49.662;8.448;2024-01-30T05:01:04;12.68;;;6.60;;
37237;SDS011;23129;49.662;8.448;2024-01-30T05:03:33;11.45;;;6.05;;
37237;SDS011;23129;49.662;8.448;2024-01-30T05:06:02;8.45;;;5.35;;
37237;SDS011;23129;49.662;8.448;2024-01-30T05:08:31;5.72;;;4.80;;
37237;SDS011;23129;49.662;8.448;2024-01-30T05:11:03;9.60;;;5.40;;
37237;SDS011;23129;49.662;8.448;2024-01-30T05:13:34;5.97;;;4.30;;
37237;SDS011;23129;49.662;8.448;2024-01-30T05:16:02;11.93;;;5.55;;
37237;SDS011;23129;49.662;8.448;2024-01-30T05:18:32;8.93;;;6.32;;
37237;SDS011;23129;49.662;8.448;2024-01-30T05:21:01;11.70;;;6.80;;
37237;SDS011;23129;49.662;8.448;2024-01-30T05:23:30;11.93;;;6.65;;
37237;SDS011;23129;49.662;8.448;2024-01-30T05:25:59;8.55;;;6.45;;
37237;SDS011;23129;49.662;8.448;2024-01-30T05:28:29;13.82;;;6.10;;
37237;SDS011;23129;49.662;8.448;2024-01-30T05:30:59;9.90;;;4.72;;
37237;SDS011;23129;49.662;8.448;2024-01-30T05:33:27;6.97;;;4.65;;
37237;SDS011;23129;49.662;8.448;2024-01-30T05:35:56;7.35;;;4.75;;
37237;SDS011;23129;49.662;8.448;2024-01-30T05:38:25;7.55;;;5.55;;
37237;SDS011;23129;49.662;8.448;2024-01-30T05:40:56;11.95;;;6.47;;
37237;SDS011;23129;49.662;8.448;2024-01-30T05:43:25;10.68;;;6.40;;
37237;SDS011;23129;49.662;8.448;2024-01-30T05:45:54;15.13;;;7.78;;
37237;SDS011;23129;49.662;8.448;2024-01-30T05:48:24;14.23;;;6.93;;
37237;SDS011;23129;49.662;8.448;2024-01-30T05:50:53;12.60;;;7.20;;
37237;SDS011;23129;49.662;8.448;2024-01-30T05:53:22;11.70;;;7.00;;
37237;SDS011;23129;49.662;8.448;2024-01-30T05:55:50;18.40;;;6.85;;
37237;SDS011;23129;49.662;8.448;2024-01-30T05:58:19;12.20;;;6.78;;
37237;SDS011;23129;49.662;8.448;2024-01-30T06:00:48;10.95;;;6.60;;
37237;SDS011;23129;49.662;8.448;2024-01-30T06:03:16;13.48;;;6.85;;
37237;SDS011;23129;49.662;8.448;2024-01-30T06:05:46;12.07;;;6.47;;
37237;SDS011;23129;49.662;8.448;2024-01-30T06:08:15;13.90;;;7.00;;
37237;SDS011;23129;49.662;8.448;2024-01-30T06:10:44;13.30;;;7.07;;
37237;SDS011;23129;49.662;8.448;2024-01-30T06:13:12;7.47;;;5.28;;
37237;SDS011;23129;49.662;8.448;2024-01-30T06:15:41;8.50;;;5.75;;
37237;SDS011;23129;49.662;8.448;2024-01-30T06:18:09;8.50;;;5.40;;
37237;SDS011;23129;49.662;8.448;2024-01-30T06:20:38;6.47;;;4.03;;
37237;SDS011;23129;49.662;8.448;2024-01-30T06:23:08;11.15;;;5.38;;
37237;SDS011;23129;49.662;8.448;2024-01-30T06:25:39;8.73;;;5.57;;
37237;SDS011;23129;49.662;8.448;2024-01-30T06:28:08;10.25;;;5.78;;
37237;SDS011;23129;49.662;8.448;2024-01-30T06:30:37;8.70;;;5.50;;
37237;SDS011;23129;49.662;8.448;2024-01-30T06:33:05;19.05;;;5.68;;
37237;SDS011;23129;49.662;8.448;2024-01-30T06:35:34;10.63;;;6.65;;
37237;SDS011;23129;49.662;8.448;2024-01-30T06:38:11;10.00;;;5.47;;
37237;SDS011;23129;49.662;8.448;2024-01-30T06:40:42;7.25;;;5.28;;
37237;SDS011;23129;49.662;8.448;2024-01-30T06:43:10;10.30;;;5.45;;
37237;SDS011;23129;49.662;8.448;2024-01-30T06:45:39;10.07;;;6.53;;
37237;SDS011;23129;49.662;8.448;2024-01-30T06:48:08;12.65;;;6.57;;
37237;SDS011;23129;49.662;8.448;2024-01-30T06:50:37;14.65;;;8.25;;
37237;SDS011;23129;49.662;8.448;2024-01-30T06:53:06;14.50;;;8.27;;
37237;SDS011;23129;49.662;8.448;2024-01-30T06:55:36;10.50;;;7.32;;
37237;SDS011;23129;49.662;8.448;2024-01-30T06:58:05;18.27;;;7.22;;
37237;SDS011;23129;49.662;8.448;2024-01-30T07:00:34;13.32;;;7.18;;
37237;SDS011;23129;49.662;8.448;2024-01-30T07:03:03;16.88;;;8.65;;
37237;SDS011;23129;49.662;8.448;2024-01-30T07:05:32;18.55;;;8.38;;
37237;SDS011;23129;49.662;8.448;2024-01-30T07:08:01;13.85;;;7.63;;
37237;SDS011;23129;49.662;8.448;2024-01-30T07:10:29;13.18;;;7.93;;
37237;SDS011;23129;49.662;8.448;2024-01-30T07:13:01;12.27;;;7.35;;
37237;SDS011;23129;49.662;8.448;2024-01-30T07:15:30;14.15;;;7.75;;
37237;SDS011;23129;49.662;8.448;2024-01-30T07:17:59;14.88;;;7.28;;
37237;SDS011;23129;49.662;8.448;2024-01-30T07:20:28;18.73;;;7.60;;
37237;SDS011;23129;49.662;8.448;2024-01-30T07:22:58;18.02;;;8.75;;
37237;SDS011;23129;49.662;8.448;2024-01-30T07:25:27;13.07;;;8.10;;
37237;SDS011;23129;49.662;8.448;2024-01-30T07:27:56;15.82;;;7.88;;
37237;SDS011;23129;49.662;8.448;2024-01-30T07:30:26;12.98;;;7.03;;
37237;SDS011;23129;49.662;8.448;2024-01-30T07:32:55;10.98;;;6.63;;
37237;SDS011;23129;49.662;8.448;2024-01-30T07:35:23;21.27;;;8.55;;
37237;SDS011;23129;49.662;8.448;2024-01-30T07:37:52;19.40;;;7.43;;
37237;SDS011;23129;49.662;8.448;2024-01-30T07:40:20;12.52;;;8.02;;
37237;SDS011;23129;49.662;8.448;2024-01-30T07:42:50;11.27;;;6.40;;
37237;SDS011;23129;49.662;8.448;2024-01-30T07:45:21;13.73;;;6.18;;
37237;SDS011;23129;49.662;8.448;2024-01-30T07:47:52;18.02;;;7.82;;
37237;SDS011;23129;49.662;8.448;2024-01-30T07:50:21;14.88;;;8.02;;
37237;SDS011;23129;49.662;8.448;2024-01-30T07:52:49;17.38;;;8.77;;
37237;SDS011;23129;49.662;8.448;2024-01-30T08:02:48;12.98;;;8.23;;
37237;SDS011;23129;49.662;8.448;2024-01-30T08:05:18;14.45;;;7.88;;
37237;SDS011;23129;49.662;8.448;2024-01-30T08:07:48;12.68;;;8.80;;
37237;SDS011;23129;49.662;8.448;2024-01-30T08:10:18;18.58;;;9.75;;
37237;SDS011;23129;49.662;8.448;2024-01-30T08:12:47;18.13;;;10.27;;
37237;SDS011;23129;49.662;8.448;2024-01-30T08:15:15;18.80;;;10.15;;
37237;SDS011;23129;49.662;8.448;2024-01-30T08:17:44;20.63;;;10.10;;
37237;SDS011;23129;49.662;8.448;2024-01-30T08:20:13;19.50;;;11.23;;
37237;SDS011;23129;49.662;8.448;2024-01-30T08:22:44;25.23;;;9.55;;
37237;SDS011;23129;49.662;8.448;2024-01-30T08:25:13;23.00;;;11.95;;
37237;SDS011;23129;49.662;8.448;2024-01-30T08:27:42;19.77;;;11.05;;
37237;SDS011;23129;49.662;8.448;2024-01-30T08:30:11;21.77;;;10.90;;
37237;SDS011;23129;49.662;8.448;2024-01-30T08:32:40;17.02;;;10.27;;
37237;SDS011;23129;49.662;8.448;2024-01-30T08:35:10;18.35;;;10.52;;
37237;SDS011;23129;49.662;8.448;2024-01-30T08:37:40;18.70;;;9.90;;
37237;SDS011;23129;49.662;8.448;2024-01-30T08:40:10;17.42;;;10.07;;
37237;SDS011;23129;49.662;8.448;2024-01-30T08:42:39;21.92;;;10.98;;
37237;SDS011;23129;49.662;8.448;2024-01-30T08:45:09;18.95;;;10.50;;
37237;SDS011;23129;49.662;8.448;2024-01-30T08:47:38;20.20;;;11.38;;
37237;SDS011;23129;49.662;8.448;2024-01-30T08:50:08;16.63;;;10.02;;
37237;SDS011;23129;49.662;8.448;2024-01-30T08:52:37;19.48;;;9.98;;
37237;SDS011;23129;49.662;8.448;2024-01-30T08:55:05;17.95;;;10.90;;
37237;SDS011;23129;49.662;8.448;2024-01-30T08:57:36;18.23;;;10.98;;
37237;SDS011;23129;49.662;8.448;2024-01-30T09:00:05;23.25;;;10.70;;
37237;SDS011;23129;49.662;8.448;2024-01-30T09:02:35;18.35;;;9.68;;
37237;SDS011;23129;49.662;8.448;2024-01-30T09:05:04;20.13;;;11.98;;
37237;SDS011;23129;49.662;8.448;2024-01-30T09:07:33;19.30;;;10.77;;
37237;SDS011;23129;49.662;8.448;2024-01-30T09:10:03;22.00;;;9.82;;
37237;SDS011;23129;49.662;8.448;2024-01-30T09:12:36;22.83;;;11.55;;
37237;SDS011;23129;49.662;8.448;2024-01-30T09:15:05;28.95;;;12.88;;
37237;SDS011;23129;49.662;8.448;2024-01-30T09:17:35;21.10;;;11.82;;
37237;SDS011;23129;49.662;8.448;2024-01-30T09:20:04;32.65;;;11.73;;
37237;SDS011;23129;49.662;8.448;2024-01-30T09:22:34;28.15;;;12.18;;
37237;SDS011;23129;49.662;8.448;2024-01-30T09:25:02;22.38;;;12.15;;
37237;SDS011;23129;49.662;8.448;2024-01-30T09:27:32;19.50;;;10.43;;
37237;SDS011;23129;49.662;8.448;2024-01-30T09:30:02;30.45;;;11.50;;
37237;SDS011;23129;49.662;8.448;2024-01-30T09:32:31;22.83;;;11.85;;
37237;SDS011;23129;49.662;8.448;2024-01-30T09:35:00;15.85;;;10.07;;
37237;SDS011;23129;49.662;8.448;2024-01-30T09:37:30;18.92;;;9.55;;
37237;SDS011;23129;49.662;8.448;2024-01-30T09:39:59;17.02;;;9.45;;
37237;SDS011;23129;49.662;8.448;2024-01-30T09:42:28;14.35;;;8.95;;
37237;SDS011;23129;49.662;8.448;2024-01-30T09:45:04;17.30;;;9.38;;
37237;SDS011;23129;49.662;8.448;2024-01-30T09:47:35;14.23;;;8.77;;
37237;SDS011;23129;49.662;8.448;2024-01-30T09:52:37;28.58;;;10.13;;
37237;SDS011;23129;49.662;8.448;2024-01-30T09:55:07;33.40;;;10.80;;
37237;SDS011;23129;49.662;8.448;2024-01-30T09:57:36;22.50;;;10.25;;
37237;SDS011;23129;49.662;8.448;2024-01-30T10:00:07;17.58;;;10.05;;
37237;SDS011;23129;49.662;8.448;2024-01-30T10:02:39;19.70;;;10.45;;
37237;SDS011;23129;49.662;8.448;2024-01-30T10:05:09;15.55;;;9.27;;
37237;SDS011;23129;49.662;8.448;2024-01-30T10:07:39;18.80;;;9.43;;
37237;SDS011;23129;49.662;8.448;2024-01-30T10:10:21;16.77;;;8.98;;
37237;SDS011;23129;49.662;8.448;2024-01-30T10:12:50;21.88;;;9.93;;
37237;SDS011;23129;49.662;8.448;2024-01-30T10:15:21;29.92;;;9.55;;
37237;SDS011;23129;49.662;8.448;2024-01-30T10:17:49;18.67;;;10.07;;
37237;SDS011;23129;49.662;8.448;2024-01-30T10:20:18;17.52;;;10.57;;
37237;SDS011;23129;49.662;8.448;2024-01-30T10:22:49;17.08;;;10.07;;
37237;SDS011;23129;49.662;8.448;2024-01-30T10:25:17;16.42;;;10.20;;
37237;SDS011;23129;49.662;8.448;2024-01-30T10:27:46;20.35;;;11.65;;
37237;SDS011;23129;49.662;8.448;2024-01-30T10:30:21;20.13;;;10.65;;
37237;SDS011;23129;49.662;8.448;2024-01-30T10:32:50;24.17;;;9.88;;
37237;SDS011;23129;49.662;8.448;2024-01-30T10:35:19;18.40;;;10.20;;
37237;SDS011;23129;49.662;8.448;2024-01-30T10:37:48;20.60;;;11.13;;
37237;SDS011;23129;49.662;8.448;2024-01-30T10:40:16;22.15;;;10.77;;
37237;SDS011;23129;49.662;8.448;2024-01-30T10:42:49;17.42;;;10.45;;
37237;SDS011;23129;49.662;8.448;2024-01-30T10:45:23;22.90;;;10.60;;
37237;SDS011;23129;49.662;8.448;2024-01-30T10:47:57;18.52;;;10.95;;
37237;SDS011;23129;49.662;8.448;2024-01-30T10:50:30;15.73;;;9.55;;
37237;SDS011;23129;49.662;8.448;2024-01-30T10:53:02;17.95;;;10.10;;
37237;SDS011;23129;49.662;8.448;2024-01-30T10:55:32;15.25;;;9.95;;
37237;SDS011;23129;49.662;8.448;2024-01-30T10:58:02;20.85;;;11.25;;
37237;SDS011;23129;49.662;8.448;2024-01-30T11:00:33;18.00;;;11.38;;
37237;SDS011;23129;49.662;8.448;2024-01-30T11:03:02;26.92;;;11.85;;
37237;SDS011;23129;49.662;8.448;2024-01-30T11:05:31;19.48;;;12.27;;
37237;SDS011;23129;49.662;8.448;2024-01-30T11:08:10;25.75;;;12.27;;
37237;SDS011;23129;49.662;8.448;2024-01-30T11:10:46;20.85;;;11.40;;
37237;SDS011;23129;49.662;8.448;2024-01-30T11:13:15;14.05;;;9.70;;
37237;SDS011;23129;49.662;8.448;2024-01-30T11:15:48;15.43;;;9.27;;
37237;SDS011;23129;49.662;8.448;2024-01-30T11:18:23;14.90;;;10.02;;
37237;SDS011;23129;49.662;8.448;2024-01-30T11:20:52;21.00;;;9.90;;
37237;SDS011;23129;49.662;8.448;2024-01-30T11:23:25;17.05;;;10.38;;
37237;SDS011;23129;49.662;8.448;2024-01-30T11:25:54;20.92;;;10.15;;
37237;SDS011;23129;49.662;8.448;2024-01-30T11:28:24;15.38;;;9.00;;
37237;SDS011;23129;49.662;8.448;2024-01-30T11:31:04;18.40;;;8.35;;
37237;SDS011;23129;49.662;8.448;2024-01-30T11:33:34;17.38;;;9.82;;
37237;SDS011;23129;49.662;8.448;2024-01-30T11:36:03;19.80;;;9.15;;
37237;SDS011;23129;49.662;8.448;2024-01-30T11:38:34;16.60;;;9.35;;
37237;SDS011;23129;49.662;8.448;2024-01-30T11:41:02;18.77;;;9.93;;
37237;SDS011;23129;49.662;8.448;2024-01-30T11:43:32;19.98;;;10.57;;
37237;SDS011;23129;49.662;8.448;2024-01-30T11:46:01;19.60;;;10.43;;
37237;SDS011;23129;49.662;8.448;2024-01-30T11:48:33;16.48;;;8.85;;
37237;SDS011;23129;49.662;8.448;2024-01-30T11:51:02;17.30;;;8.88;;
37237;SDS011;23129;49.662;8.448;2024-01-30T11:53:31;21.23;;;9.73;;
37237;SDS011;23129;49.662;8.448;2024-01-30T11:55:59;23.02;;;9.82;;
37237;SDS011;23129;49.662;8.448;2024-01-30T11:58:28;13.18;;;8.48;;
37237;SDS011;23129;49.662;8.448;2024-01-30T12:00:56;19.73;;;9.02;;
37237;SDS011;23129;49.662;8.448;2024-01-30T12:03:28;20.38;;;9.00;;
37237;SDS011;23129;49.662;8.448;2024-01-30T12:05:56;13.93;;;8.98;;
37237;SDS011;23129;49.662;8.448;2024-01-30T12:08:26;13.23;;;8.10;;
37237;SDS011;23129;49.662;8.448;2024-01-30T12:10:56;16.55;;;8.63;;
37237;SDS011;23129;49.662;8.448;2024-01-30T12:13:28;13.85;;;9.05;;
37237;SDS011;23129;49.662;8.448;2024-01-30T12:15:59;26.98;;;8.20;;
37237;SDS011;23129;49.662;8.448;2024-01-30T12:18:30;20.80;;;8.85;;
37237;SDS011;23129;49.662;8.448;2024-01-30T12:20:58;17.90;;;8.93;;
37237;SDS011;23129;49.662;8.448;2024-01-30T12:23:28;13.57;;;7.68;;
37237;SDS011;23129;49.662;8.448;2024-01-30T12:25:57;15.30;;;7.78;;
37237;SDS011;23129;49.662;8.448;2024-01-30T12:28:25;15.38;;;7.80;;
37237;SDS011;23129;49.662;8.448;2024-01-30T12:30:55;10.82;;;7.68;;
37237;SDS011;23129;49.662;8.448;2024-01-30T12:33:26;18.42;;;8.73;;
37237;SDS011;23129;49.662;8.448;2024-01-30T12:36:02;14.25;;;8.50;;
37237;SDS011;23129;49.662;8.448;2024-01-30T12:38:32;13.18;;;7.90;;
37237;SDS011;23129;49.662;8.448;2024-01-30T12:41:01;15.65;;;8.15;;
37237;SDS011;23129;49.662;8.448;2024-01-30T12:43:32;19.20;;;8.00;;
37237;SDS011;23129;49.662;8.448;2024-01-30T12:46:05;14.85;;;9.05;;
37237;SDS011;23129;49.662;8.448;2024-01-30T12:48:36;14.95;;;7.70;;
37237;SDS011;23129;49.662;8.448;2024-01-30T12:51:08;15.48;;;8.40;;
37237;SDS011;23129;49.662;8.448;2024-01-30T12:53:37;16.00;;;8.80;;
37237;SDS011;23129;49.662;8.448;2024-01-30T12:56:06;15.18;;;9.15;;
37237;SDS011;23129;49.662;8.448;2024-01-30T12:58:36;16.40;;;8.18;;
37237;SDS011;23129;49.662;8.448;2024-01-30T13:01:04;11.80;;;6.55;;
37237;SDS011;23129;49.662;8.448;2024-01-30T13:03:35;15.00;;;8.05;;
37237;SDS011;23129;49.662;8.448;2024-01-30T13:06:04;15.13;;;7.78;;
37237;SDS011;23129;49.662;8.448;2024-01-30T13:08:35;16.63;;;8.10;;
37237;SDS011;23129;49.662;8.448;2024-01-30T13:11:04;13.35;;;7.93;;
37237;SDS011;23129;49.662;8.448;2024-01-30T13:13:43;12.65;;;7.55;;
37237;SDS011;23129;49.662;8.448;2024-01-30T13:16:11;17.95;;;7.68;;
37237;SDS011;23129;49.662;8.448;2024-01-30T13:18:40;13.65;;;8.07;;
37237;SDS011;23129;49.662;8.448;2024-01-30T13:21:09;15.25;;;7.95;;
37237;SDS011;23129;49.662;8.448;2024-01-30T13:23:39;19.08;;;8.68;;
37237;SDS011;23129;49.662;8.448;2024-01-30T13:26:09;14.95;;;8.20;;
37237;SDS011;23129;49.662;8.448;2024-01-30T13:28:38;12.88;;;7.30;;
37237;SDS011;23129;49.662;8.448;2024-01-30T13:31:07;15.18;;;8.13;;
37237;SDS011;23129;49.662;8.448;2024-01-30T13:33:36;27.60;;;9.55;;
37237;SDS011;23129;49.662;8.448;2024-01-30T13:36:04;18.88;;;7.97;;
37237;SDS011;23129;49.662;8.448;2024-01-30T13:38:34;14.27;;;8.07;;
37237;SDS011;23129;49.662;8.448;2024-01-30T13:41:04;13.93;;;8.63;;
37237;SDS011;23129;49.662;8.448;2024-01-30T13:43:33;14.32;;;7.82;;
37237;SDS011;23129;49.662;8.448;2024-01-30T13:46:01;19.70;;;7.85;;
37237;SDS011;23129;49.662;8.448;2024-01-30T13:48:30;14.15;;;7.72;;
37237;SDS011;23129;49.662;8.448;2024-01-30T13:50:59;15.90;;;7.63;;
37237;SDS011;23129;49.662;8.448;2024-01-30T13:53:28;17.67;;;8.15;;
37237;SDS011;23129;49.662;8.448;2024-01-30T13:55:56;14.93;;;7.68;;
37237;SDS011;23129;49.662;8.448;2024-01-30T13:58:27;17.05;;;7.13;;
37237;SDS011;23129;49.662;8.448;2024-01-30T14:00:56;14.27;;;7.50;;
37237;SDS011;23129;49.662;8.448;2024-01-30T14:03:25;16.73;;;7.22;;
37237;SDS011;23129;49.662;8.448;2024-01-30T14:05:54;14.35;;;7.68;;
37237;SDS011;23129;49.662;8.448;2024-01-30T14:08:23;15.10;;;7.07;;
37237;SDS011;23129;49.662;8.448;2024-01-30T14:10:54;16.13;;;7.95;;
37237;SDS011;23129;49.662;8.448;2024-01-30T14:13:23;13.75;;;7.32;;
37237;SDS011;23129;49.662;8.448;2024-01-30T14:15:53;13.50;;;6.72;;
37237;SDS011;23129;49.662;8.448;2024-01-30T14:18:24;17.23;;;7.07;;
37237;SDS011;23129;49.662;8.448;2024-01-30T14:20:53;12.85;;;7.25;;
37237;SDS011;23129;49.662;8.448;2024-01-30T14:23:22;11.30;;;5.85;;
37237;SDS011;23129;49.662;8.448;2024-01-30T14:25:51;10.02;;;6.50;;
37237;SDS011;23129;49.662;8.448;2024-01-30T14:28:20;17.20;;;7.70;;
37237;SDS011;23129;49.662;8.448;2024-01-30T14:30:48;13.43;;;7.03;;
37237;SDS011;23129;49.662;8.448;2024-01-30T14:33:19;10.73;;;6.80;;
37237;SDS011;23129;49.662;8.448;2024-01-30T14:35:48;13.90;;;6.28;;
37237;SDS011;23129;49.662;8.448;2024-01-30T14:38:17;14.40;;;6.60;;
37237;SDS011;23129;49.662;8.448;2024-01-30T14:40:46;13.68;;;7.18;;
37237;SDS011;23129;49.662;8.448;2024-01-30T14:43:14;12.15;;;6.57;;
37237;SDS011;23129;49.662;8.448;2024-01-30T14:45:43;14.85;;;7.07;;
37237;SDS011;23129;49.662;8.448;2024-01-30T14:48:15;10.45;;;6.78;;
37237;SDS011;23129;49.662;8.448;2024-01-30T14:50:46;15.77;;;7.47;;
37237;SDS011;23129;49.662;8.448;2024-01-30T14:53:14;14.23;;;7.45;;
37237;SDS011;23129;49.662;8.448;2024-01-30T14:55:44;22.42;;;7.80;;
37237;SDS011;23129;49.662;8.448;2024-01-30T14:58:12;11.48;;;7.60;;